sensor_id;sensor_type;location;lat;lon;timestamp;temperature;humidity
47618;DHT22;33336;36.728;-4.414;2023-12-04T00:01:23;13.70;91.60
47618;DHT22;33336;36.728;-4.414;2023-12-04T00:06:30;13.70;91.50
47618;DHT22;33336;36.728;-4.414;2023-12-04T00:11:33;13.90;91.50
47618;DHT22;33336;36.728;-4.414;2023-12-04T00:16:37;13.80;91.70
47618;DHT22;33336;36.728;-4.414;2023-12-04T00:21:41;13.90;91.50
47618;DHT22;33336;36.728;-4.414;2023-12-04T00:26:45;14.00;90.90
47618;DHT22;33336;36.728;-4.414;2023-12-04T00:31:48;14.00;90.60
47618;DHT22;33336;36.728;-4.414;2023-12-04T00:36:52;13.70;90.80
47618;DHT22;33336;36.728;-4.414;2023-12-04T00:41:55;13.60;90.90
47618;DHT22;33336;36.728;-4.414;2023-12-04T00:46:58;13.70;90.80
47618;DHT22;33336;36.728;-4.414;2023-12-04T00:52:03;13.50;91.20
47618;DHT22;33336;36.728;-4.414;2023-12-04T00:57:06;13.20;91.10
47618;DHT22;33336;36.728;-4.414;2023-12-04T01:02:09;13.40;91.00
47618;DHT22;33336;36.728;-4.414;2023-12-04T01:07:13;13.80;90.80
47618;DHT22;33336;36.728;-4.414;2023-12-04T01:12:16;13.80;90.40
47618;DHT22;33336;36.728;-4.414;2023-12-04T01:17:20;13.70;90.30
47618;DHT22;33336;36.728;-4.414;2023-12-04T01:22:24;13.50;90.10
47618;DHT22;33336;36.728;-4.414;2023-12-04T01:27:28;13.30;90.00
47618;DHT22;33336;36.728;-4.414;2023-12-04T01:32:31;13.30;90.30
47618;DHT22;33336;36.728;-4.414;2023-12-04T01:37:37;13.10;90.50
47618;DHT22;33336;36.728;-4.414;2023-12-04T01:42:42;13.40;90.20
47618;DHT22;33336;36.728;-4.414;2023-12-04T01:47:46;12.90;90.50
47618;DHT22;33336;36.728;-4.414;2023-12-04T01:52:52;13.00;90.50
47618;DHT22;33336;36.728;-4.414;2023-12-04T01:57:56;13.00;90.60
47618;DHT22;33336;36.728;-4.414;2023-12-04T02:03:01;13.20;90.30
47618;DHT22;33336;36.728;-4.414;2023-12-04T02:08:05;13.30;90.30
47618;DHT22;33336;36.728;-4.414;2023-12-04T02:13:09;13.30;90.20
47618;DHT22;33336;36.728;-4.414;2023-12-04T02:18:13;13.40;90.10
47618;DHT22;33336;36.728;-4.414;2023-12-04T02:23:17;13.30;90.30
47618;DHT22;33336;36.728;-4.414;2023-12-04T02:28:23;13.50;90.20
47618;DHT22;33336;36.728;-4.414;2023-12-04T02:33:27;13.10;90.30
47618;DHT22;33336;36.728;-4.414;2023-12-04T02:38:31;12.40;90.70
47618;DHT22;33336;36.728;-4.414;2023-12-04T02:43:35;12.70;90.80
47618;DHT22;33336;36.728;-4.414;2023-12-04T02:48:39;13.00;90.60
47618;DHT22;33336;36.728;-4.414;2023-12-04T02:53:42;12.50;90.90
47618;DHT22;33336;36.728;-4.414;2023-12-04T02:58:46;13.00;90.60
47618;DHT22;33336;36.728;-4.414;2023-12-04T03:03:49;13.10;90.60
47618;DHT22;33336;36.728;-4.414;2023-12-04T03:08:53;12.90;90.50
47618;DHT22;33336;36.728;-4.414;2023-12-04T03:13:59;13.30;90.50
47618;DHT22;33336;36.728;-4.414;2023-12-04T03:19:03;12.70;90.90
47618;DHT22;33336;36.728;-4.414;2023-12-04T03:24:06;12.90;90.70
47618;DHT22;33336;36.728;-4.414;2023-12-04T03:29:11;13.00;90.60
47618;DHT22;33336;36.728;-4.414;2023-12-04T03:34:14;13.10;90.80
47618;DHT22;33336;36.728;-4.414;2023-12-04T03:39:18;13.40;91.30
47618;DHT22;33336;36.728;-4.414;2023-12-04T03:44:22;13.70;91.60
47618;DHT22;33336;36.728;-4.414;2023-12-04T03:49:26;13.70;91.90
47618;DHT22;33336;36.728;-4.414;2023-12-04T03:54:29;13.70;91.30
47618;DHT22;33336;36.728;-4.414;2023-12-04T03:59:33;13.20;91.90
47618;DHT22;33336;36.728;-4.414;2023-12-04T04:04:36;13.70;91.80
47618;DHT22;33336;36.728;-4.414;2023-12-04T04:09:39;14.00;91.90
47618;DHT22;33336;36.728;-4.414;2023-12-04T04:14:43;13.70;92.20
47618;DHT22;33336;36.728;-4.414;2023-12-04T04:19:47;13.20;92.20
47618;DHT22;33336;36.728;-4.414;2023-12-04T04:24:50;13.00;92.90
47618;DHT22;33336;36.728;-4.414;2023-12-04T04:29:54;13.20;92.90
47618;DHT22;33336;36.728;-4.414;2023-12-04T04:34:57;13.50;92.60
47618;DHT22;33336;36.728;-4.414;2023-12-04T04:40:01;13.60;92.70
47618;DHT22;33336;36.728;-4.414;2023-12-04T04:45:07;14.00;92.40
47618;DHT22;33336;36.728;-4.414;2023-12-04T04:50:10;14.30;92.10
47618;DHT22;33336;36.728;-4.414;2023-12-04T04:55:13;14.40;92.10
47618;DHT22;33336;36.728;-4.414;2023-12-04T05:00:18;14.30;92.30
47618;DHT22;33336;36.728;-4.414;2023-12-04T05:05:21;14.50;92.40
47618;DHT22;33336;36.728;-4.414;2023-12-04T05:10:24;13.80;93.10
47618;DHT22;33336;36.728;-4.414;2023-12-04T05:15:28;13.70;93.60
47618;DHT22;33336;36.728;-4.414;2023-12-04T05:20:32;13.10;94.90
47618;DHT22;33336;36.728;-4.414;2023-12-04T05:25:34;13.40;94.90
47618;DHT22;33336;36.728;-4.414;2023-12-04T05:30:39;13.10;95.60
47618;DHT22;33336;36.728;-4.414;2023-12-04T05:35:42;13.20;96.00
47618;DHT22;33336;36.728;-4.414;2023-12-04T05:40:46;13.70;95.70
47618;DHT22;33336;36.728;-4.414;2023-12-04T05:45:51;13.50;96.00
47618;DHT22;33336;36.728;-4.414;2023-12-04T05:50:55;12.80;97.30
47618;DHT22;33336;36.728;-4.414;2023-12-04T05:55:57;12.60;98.30
47618;DHT22;33336;36.728;-4.414;2023-12-04T06:01:03;12.80;98.10
47618;DHT22;33336;36.728;-4.414;2023-12-04T06:06:07;13.20;97.80
47618;DHT22;33336;36.728;-4.414;2023-12-04T06:11:11;13.10;98.10
47618;DHT22;33336;36.728;-4.414;2023-12-04T06:16:15;13.50;97.70
47618;DHT22;33336;36.728;-4.414;2023-12-04T06:21:19;13.90;96.90
47618;DHT22;33336;36.728;-4.414;2023-12-04T06:26:22;14.00;96.80
47618;DHT22;33336;36.728;-4.414;2023-12-04T06:31:28;13.80;97.20
47618;DHT22;33336;36.728;-4.414;2023-12-04T06:36:33;13.50;97.70
47618;DHT22;33336;36.728;-4.414;2023-12-04T06:41:39;13.10;98.30
47618;DHT22;33336;36.728;-4.414;2023-12-04T06:46:49;13.20;98.50
47618;DHT22;33336;36.728;-4.414;2023-12-04T06:51:53;13.60;98.30
47618;DHT22;33336;36.728;-4.414;2023-12-04T06:56:55;13.50;98.60
47618;DHT22;33336;36.728;-4.414;2023-12-04T07:02:00;13.20;98.90
47618;DHT22;33336;36.728;-4.414;2023-12-04T07:07:03;13.20;99.30
47618;DHT22;33336;36.728;-4.414;2023-12-04T07:12:08;13.20;99.90
47618;DHT22;33336;36.728;-4.414;2023-12-04T07:17:12;13.40;99.80
47618;DHT22;33336;36.728;-4.414;2023-12-04T07:22:15;13.50;99.90
47618;DHT22;33336;36.728;-4.414;2023-12-04T07:27:18;12.80;99.90
47618;DHT22;33336;36.728;-4.414;2023-12-04T07:32:22;12.80;99.90
47618;DHT22;33336;36.728;-4.414;2023-12-04T07:37:25;12.80;99.90
47618;DHT22;33336;36.728;-4.414;2023-12-04T07:42:29;13.00;99.90
47618;DHT22;33336;36.728;-4.414;2023-12-04T07:47:33;13.30;99.90
47618;DHT22;33336;36.728;-4.414;2023-12-04T07:52:37;13.10;99.90
47618;DHT22;33336;36.728;-4.414;2023-12-04T07:57:39;13.50;99.90
47618;DHT22;33336;36.728;-4.414;2023-12-04T08:02:44;13.20;99.90
47618;DHT22;33336;36.728;-4.414;2023-12-04T08:07:47;13.10;99.90
47618;DHT22;33336;36.728;-4.414;2023-12-04T08:12:51;13.20;99.90
47618;DHT22;33336;36.728;-4.414;2023-12-04T08:17:55;13.00;99.90
47618;DHT22;33336;36.728;-4.414;2023-12-04T08:23:00;13.30;99.90
47618;DHT22;33336;36.728;-4.414;2023-12-04T08:28:03;13.00;99.90
47618;DHT22;33336;36.728;-4.414;2023-12-04T08:33:07;13.30;99.90
47618;DHT22;33336;36.728;-4.414;2023-12-04T08:38:10;13.20;99.90
47618;DHT22;33336;36.728;-4.414;2023-12-04T08:43:14;12.90;99.90
47618;DHT22;33336;36.728;-4.414;2023-12-04T08:48:18;13.10;99.90
47618;DHT22;33336;36.728;-4.414;2023-12-04T08:53:22;13.30;99.90
47618;DHT22;33336;36.728;-4.414;2023-12-04T08:58:24;13.60;99.90
47618;DHT22;33336;36.728;-4.414;2023-12-04T09:03:29;13.60;99.90
47618;DHT22;33336;36.728;-4.414;2023-12-04T09:08:32;13.70;99.90
47618;DHT22;33336;36.728;-4.414;2023-12-04T09:13:36;13.80;99.90
47618;DHT22;33336;36.728;-4.414;2023-12-04T09:18:41;13.80;99.90
47618;DHT22;33336;36.728;-4.414;2023-12-04T09:23:44;13.60;99.90
47618;DHT22;33336;36.728;-4.414;2023-12-04T09:28:50;14.00;99.90
47618;DHT22;33336;36.728;-4.414;2023-12-04T09:33:55;14.00;99.90
47618;DHT22;33336;36.728;-4.414;2023-12-04T09:38:58;13.60;99.50
47618;DHT22;33336;36.728;-4.414;2023-12-04T09:44:02;14.00;99.70
47618;DHT22;33336;36.728;-4.414;2023-12-04T09:49:07;14.20;99.00
47618;DHT22;33336;36.728;-4.414;2023-12-04T09:54:11;14.20;98.90
47618;DHT22;33336;36.728;-4.414;2023-12-04T09:59:16;14.40;98.60
47618;DHT22;33336;36.728;-4.414;2023-12-04T10:04:22;14.70;98.20
47618;DHT22;33336;36.728;-4.414;2023-12-04T10:09:25;14.50;98.50
47618;DHT22;33336;36.728;-4.414;2023-12-04T10:14:29;14.50;98.90
47618;DHT22;33336;36.728;-4.414;2023-12-04T10:19:33;14.60;98.60
47618;DHT22;33336;36.728;-4.414;2023-12-04T10:24:38;14.80;98.60
47618;DHT22;33336;36.728;-4.414;2023-12-04T10:29:42;14.50;99.10
47618;DHT22;33336;36.728;-4.414;2023-12-04T10:34:48;14.70;99.30
47618;DHT22;33336;36.728;-4.414;2023-12-04T10:39:51;14.30;99.20
47618;DHT22;33336;36.728;-4.414;2023-12-04T10:44:57;14.20;99.50
47618;DHT22;33336;36.728;-4.414;2023-12-04T10:50:03;14.20;99.80
47618;DHT22;33336;36.728;-4.414;2023-12-04T10:55:09;14.20;99.90
47618;DHT22;33336;36.728;-4.414;2023-12-04T11:00:15;14.30;99.90
47618;DHT22;33336;36.728;-4.414;2023-12-04T11:05:23;14.80;99.60
47618;DHT22;33336;36.728;-4.414;2023-12-04T11:10:27;14.80;99.60
47618;DHT22;33336;36.728;-4.414;2023-12-04T11:15:38;15.20;99.10
47618;DHT22;33336;36.728;-4.414;2023-12-04T11:20:48;15.20;98.80
47618;DHT22;33336;36.728;-4.414;2023-12-04T11:25:54;15.60;98.80
47618;DHT22;33336;36.728;-4.414;2023-12-04T11:30:57;15.70;98.50
47618;DHT22;33336;36.728;-4.414;2023-12-04T11:36:08;15.50;98.60
47618;DHT22;33336;36.728;-4.414;2023-12-04T11:41:18;15.00;99.10
47618;DHT22;33336;36.728;-4.414;2023-12-04T11:46:24;15.00;99.20
47618;DHT22;33336;36.728;-4.414;2023-12-04T11:51:47;15.20;99.00
47618;DHT22;33336;36.728;-4.414;2023-12-04T11:56:58;15.30;99.10
47618;DHT22;33336;36.728;-4.414;2023-12-04T12:02:01;15.80;98.50
47618;DHT22;33336;36.728;-4.414;2023-12-04T12:07:07;16.10;98.50
47618;DHT22;33336;36.728;-4.414;2023-12-04T12:12:10;16.00;98.10
47618;DHT22;33336;36.728;-4.414;2023-12-04T12:17:14;16.40;98.10
47618;DHT22;33336;36.728;-4.414;2023-12-04T12:22:19;16.20;97.70
47618;DHT22;33336;36.728;-4.414;2023-12-04T12:27:25;16.70;97.50
47618;DHT22;33336;36.728;-4.414;2023-12-04T12:32:28;16.80;96.60
47618;DHT22;33336;36.728;-4.414;2023-12-04T12:37:32;16.60;96.80
47618;DHT22;33336;36.728;-4.414;2023-12-04T12:42:36;16.50;96.50
47618;DHT22;33336;36.728;-4.414;2023-12-04T12:47:44;16.20;96.40
47618;DHT22;33336;36.728;-4.414;2023-12-04T12:52:49;16.20;96.60
47618;DHT22;33336;36.728;-4.414;2023-12-04T12:57:55;16.40;96.80
47618;DHT22;33336;36.728;-4.414;2023-12-04T13:02:58;16.40;96.70
47618;DHT22;33336;36.728;-4.414;2023-12-04T13:08:03;16.50;96.80
47618;DHT22;33336;36.728;-4.414;2023-12-04T13:13:09;16.40;96.90
47618;DHT22;33336;36.728;-4.414;2023-12-04T13:18:12;16.80;96.90
47618;DHT22;33336;36.728;-4.414;2023-12-04T13:23:17;16.60;97.40
47618;DHT22;33336;36.728;-4.414;2023-12-04T13:28:20;16.60;97.70
47618;DHT22;33336;36.728;-4.414;2023-12-04T13:33:23;16.10;98.20
47618;DHT22;33336;36.728;-4.414;2023-12-04T13:38:29;16.20;98.90
47618;DHT22;33336;36.728;-4.414;2023-12-04T13:43:32;16.50;99.40
47618;DHT22;33336;36.728;-4.414;2023-12-04T13:48:53;16.40;99.90
47618;DHT22;33336;36.728;-4.414;2023-12-04T13:53:58;16.20;99.90
47618;DHT22;33336;36.728;-4.414;2023-12-04T13:59:10;16.60;99.90
47618;DHT22;33336;36.728;-4.414;2023-12-04T14:04:20;16.70;99.90
47618;DHT22;33336;36.728;-4.414;2023-12-04T14:09:27;16.40;99.90
47618;DHT22;33336;36.728;-4.414;2023-12-04T14:14:30;16.20;99.90
47618;DHT22;33336;36.728;-4.414;2023-12-04T14:19:34;16.50;99.90
47618;DHT22;33336;36.728;-4.414;2023-12-04T14:24:41;16.20;99.20
47618;DHT22;33336;36.728;-4.414;2023-12-04T14:29:44;15.90;98.70
47618;DHT22;33336;36.728;-4.414;2023-12-04T14:34:47;15.80;98.70
47618;DHT22;33336;36.728;-4.414;2023-12-04T14:39:52;15.90;99.10
47618;DHT22;33336;36.728;-4.414;2023-12-04T14:44:55;16.20;99.10
47618;DHT22;33336;36.728;-4.414;2023-12-04T14:49:58;16.30;98.60
47618;DHT22;33336;36.728;-4.414;2023-12-04T14:55:03;16.40;98.80
47618;DHT22;33336;36.728;-4.414;2023-12-04T15:00:37;16.80;98.40
47618;DHT22;33336;36.728;-4.414;2023-12-04T15:05:57;16.60;98.20
47618;DHT22;33336;36.728;-4.414;2023-12-04T15:11:32;17.10;97.60
47618;DHT22;33336;36.728;-4.414;2023-12-04T15:17:05;16.90;97.60
47618;DHT22;33336;36.728;-4.414;2023-12-04T15:22:19;17.00;97.60
47618;DHT22;33336;36.728;-4.414;2023-12-04T15:27:24;17.50;97.10
47618;DHT22;33336;36.728;-4.414;2023-12-04T15:32:27;17.70;97.00
47618;DHT22;33336;36.728;-4.414;2023-12-04T15:37:30;18.00;96.50
47618;DHT22;33336;36.728;-4.414;2023-12-04T15:42:35;17.80;96.70
47618;DHT22;33336;36.728;-4.414;2023-12-04T15:47:38;17.40;97.60
47618;DHT22;33336;36.728;-4.414;2023-12-04T15:52:41;17.30;97.70
47618;DHT22;33336;36.728;-4.414;2023-12-04T15:57:47;17.60;97.80
47618;DHT22;33336;36.728;-4.414;2023-12-04T16:02:56;17.20;98.00
47618;DHT22;33336;36.728;-4.414;2023-12-04T16:07:59;17.40;98.00
47618;DHT22;33336;36.728;-4.414;2023-12-04T16:13:04;17.40;97.70
47618;DHT22;33336;36.728;-4.414;2023-12-04T16:18:07;17.20;98.00
47618;DHT22;33336;36.728;-4.414;2023-12-04T16:23:10;17.50;98.00
47618;DHT22;33336;36.728;-4.414;2023-12-04T16:28:15;16.90;99.10
47618;DHT22;33336;36.728;-4.414;2023-12-04T16:33:18;17.40;98.80
47618;DHT22;33336;36.728;-4.414;2023-12-04T16:38:21;17.70;98.20
47618;DHT22;33336;36.728;-4.414;2023-12-04T16:43:28;17.90;98.50
47618;DHT22;33336;36.728;-4.414;2023-12-04T16:48:31;17.70;98.20
47618;DHT22;33336;36.728;-4.414;2023-12-04T16:53:34;17.80;98.30
47618;DHT22;33336;36.728;-4.414;2023-12-04T16:58:39;17.90;98.00
47618;DHT22;33336;36.728;-4.414;2023-12-04T17:03:42;17.90;98.00
47618;DHT22;33336;36.728;-4.414;2023-12-04T17:08:45;18.00;98.10
47618;DHT22;33336;36.728;-4.414;2023-12-04T17:13:50;18.00;98.10
47618;DHT22;33336;36.728;-4.414;2023-12-04T17:18:53;17.90;98.10
47618;DHT22;33336;36.728;-4.414;2023-12-04T17:23:56;17.70;98.10
47618;DHT22;33336;36.728;-4.414;2023-12-04T17:29:01;17.30;98.70
47618;DHT22;33336;36.728;-4.414;2023-12-04T17:34:04;17.80;98.20
47618;DHT22;33336;36.728;-4.414;2023-12-04T17:39:07;17.70;98.50
47618;DHT22;33336;36.728;-4.414;2023-12-04T17:44:12;17.70;98.70
47618;DHT22;33336;36.728;-4.414;2023-12-04T17:49:15;17.10;99.30
47618;DHT22;33336;36.728;-4.414;2023-12-04T17:54:18;17.20;99.30
47618;DHT22;33336;36.728;-4.414;2023-12-04T17:59:23;17.60;98.70
47618;DHT22;33336;36.728;-4.414;2023-12-04T18:04:26;17.30;99.30
47618;DHT22;33336;36.728;-4.414;2023-12-04T18:09:29;17.00;99.50
47618;DHT22;33336;36.728;-4.414;2023-12-04T18:14:33;17.50;99.00
47618;DHT22;33336;36.728;-4.414;2023-12-04T18:19:37;17.40;99.20
47618;DHT22;33336;36.728;-4.414;2023-12-04T18:24:41;17.60;98.90
47618;DHT22;33336;36.728;-4.414;2023-12-04T18:29:46;17.00;99.30
47618;DHT22;33336;36.728;-4.414;2023-12-04T18:34:50;17.20;99.20
47618;DHT22;33336;36.728;-4.414;2023-12-04T18:39:56;17.20;99.20
47618;DHT22;33336;36.728;-4.414;2023-12-04T18:45:02;16.70;99.90
47618;DHT22;33336;36.728;-4.414;2023-12-04T18:50:07;16.50;99.90
47618;DHT22;33336;36.728;-4.414;2023-12-04T18:55:09;16.40;99.90
47618;DHT22;33336;36.728;-4.414;2023-12-04T19:00:15;16.50;99.90
47618;DHT22;33336;36.728;-4.414;2023-12-04T19:05:18;16.60;99.90
47618;DHT22;33336;36.728;-4.414;2023-12-04T19:10:21;16.30;99.90
47618;DHT22;33336;36.728;-4.414;2023-12-04T19:15:26;16.20;99.90
47618;DHT22;33336;36.728;-4.414;2023-12-04T19:20:32;16.30;99.90
47618;DHT22;33336;36.728;-4.414;2023-12-04T19:25:35;16.20;99.90
47618;DHT22;33336;36.728;-4.414;2023-12-04T19:30:42;16.60;99.90
47618;DHT22;33336;36.728;-4.414;2023-12-04T19:35:45;16.90;99.90
47618;DHT22;33336;36.728;-4.414;2023-12-04T19:40:48;16.60;99.90
47618;DHT22;33336;36.728;-4.414;2023-12-04T19:45:53;16.60;99.90
47618;DHT22;33336;36.728;-4.414;2023-12-04T19:50:56;16.00;99.90
47618;DHT22;33336;36.728;-4.414;2023-12-04T19:55:59;16.20;99.90
47618;DHT22;33336;36.728;-4.414;2023-12-04T20:01:04;16.00;99.90
47618;DHT22;33336;36.728;-4.414;2023-12-04T20:06:08;16.00;99.90
47618;DHT22;33336;36.728;-4.414;2023-12-04T20:11:11;16.00;99.90
47618;DHT22;33336;36.728;-4.414;2023-12-04T20:16:16;15.80;99.90
47618;DHT22;33336;36.728;-4.414;2023-12-04T20:21:19;15.80;99.90
47618;DHT22;33336;36.728;-4.414;2023-12-04T20:26:22;15.90;99.90
47618;DHT22;33336;36.728;-4.414;2023-12-04T20:31:29;15.70;99.90
47618;DHT22;33336;36.728;-4.414;2023-12-04T20:36:31;15.90;99.90
47618;DHT22;33336;36.728;-4.414;2023-12-04T20:41:35;15.80;99.90
47618;DHT22;33336;36.728;-4.414;2023-12-04T20:46:39;15.80;99.90
47618;DHT22;33336;36.728;-4.414;2023-12-04T20:51:43;15.50;99.90
47618;DHT22;33336;36.728;-4.414;2023-12-04T20:56:46;15.60;99.90
47618;DHT22;33336;36.728;-4.414;2023-12-04T21:01:51;15.90;99.90
47618;DHT22;33336;36.728;-4.414;2023-12-04T21:06:54;15.80;99.90
47618;DHT22;33336;36.728;-4.414;2023-12-04T21:11:57;16.10;99.90
47618;DHT22;33336;36.728;-4.414;2023-12-04T21:17:02;15.90;99.90
47618;DHT22;33336;36.728;-4.414;2023-12-04T21:22:07;15.70;99.90
47618;DHT22;33336;36.728;-4.414;2023-12-04T21:27:11;15.60;99.90
47618;DHT22;33336;36.728;-4.414;2023-12-04T21:32:16;15.60;99.90
47618;DHT22;33336;36.728;-4.414;2023-12-04T21:37:18;15.40;99.90
47618;DHT22;33336;36.728;-4.414;2023-12-04T21:42:23;15.50;99.90
47618;DHT22;33336;36.728;-4.414;2023-12-04T21:47:27;15.40;99.90
47618;DHT22;33336;36.728;-4.414;2023-12-04T21:52:31;15.30;99.90
47618;DHT22;33336;36.728;-4.414;2023-12-04T21:57:34;15.30;99.90
47618;DHT22;33336;36.728;-4.414;2023-12-04T22:02:39;15.00;99.90
47618;DHT22;33336;36.728;-4.414;2023-12-04T22:07:41;15.20;99.90
47618;DHT22;33336;36.728;-4.414;2023-12-04T22:12:46;15.00;99.90
47618;DHT22;33336;36.728;-4.414;2023-12-04T22:17:50;15.00;99.90
47618;DHT22;33336;36.728;-4.414;2023-12-04T22:22:56;15.40;99.90
47618;DHT22;33336;36.728;-4.414;2023-12-04T22:27:59;15.40;99.90
47618;DHT22;33336;36.728;-4.414;2023-12-04T22:33:04;15.40;99.90
47618;DHT22;33336;36.728;-4.414;2023-12-04T22:38:06;15.50;99.90
47618;DHT22;33336;36.728;-4.414;2023-12-04T22:43:10;15.40;99.90
47618;DHT22;33336;36.728;-4.414;2023-12-04T22:48:14;15.50;99.90
47618;DHT22;33336;36.728;-4.414;2023-12-04T22:53:18;15.30;99.90
47618;DHT22;33336;36.728;-4.414;2023-12-04T22:58:21;15.30;99.90
47618;DHT22;33336;36.728;-4.414;2023-12-04T23:03:26;15.10;99.90
47618;DHT22;33336;36.728;-4.414;2023-12-04T23:08:28;14.90;99.90
47618;DHT22;33336;36.728;-4.414;2023-12-04T23:13:31;15.00;99.90
47618;DHT22;33336;36.728;-4.414;2023-12-04T23:18:35;14.80;99.90
47618;DHT22;33336;36.728;-4.414;2023-12-04T23:23:42;14.60;99.90
47618;DHT22;33336;36.728;-4.414;2023-12-04T23:28:45;14.50;99.90
47618;DHT22;33336;36.728;-4.414;2023-12-04T23:33:51;14.50;99.90
47618;DHT22;33336;36.728;-4.414;2023-12-04T23:38:53;14.20;99.90
47618;DHT22;33336;36.728;-4.414;2023-12-04T23:43:57;14.20;99.90
47618;DHT22;33336;36.728;-4.414;2023-12-04T23:49:03;14.20;99.90
47618;DHT22;33336;36.728;-4.414;2023-12-04T23:54:06;14.10;99.90
47618;DHT22;33336;36.728;-4.414;2023-12-04T23:59:09;14.00;99.90
